Time;durP1;ratioP1;P1;durP2;ratioP2;P2;SDS_P1;SDS_P2;PMS_P1;PMS_P2;Temp;Humidity;BMP_temperature;BMP_pressure;BME280_temperature;BME280_humidity;BME280_pressure;Samples;Min_cycle;Max_cycle;Signal;HPM_P1;HPM_P2
2021/12/16 00:01:55;;;;;;;14.77;4.70;;;;;;;7.62;100.00;100695.31;4905626;29;20059;-83
2021/12/16 00:09:33;;;;;;;10.60;4.60;;;;;;;7.53;100.00;100704.78;4927022;29;20039;-86
2021/12/16 00:33:35;;;;;;;16.88;4.10;;;;;;;7.42;100.00;100712.72;4908140;29;20130;-86
2021/12/16 00:36:03;;;;;;;10.10;3.63;;;;;;;7.38;100.00;100719.19;4928832;29;20741;-86
2021/12/16 00:38:29;;;;;;;10.23;3.67;;;;;;;7.38;100.00;100703.50;4898362;29;20070;-86
2021/12/16 00:40:56;;;;;;;8.65;3.80;;;;;;;7.41;100.00;100711.91;4893335;29;20035;-85
2021/12/16 00:43:31;;;;;;;14.27;3.10;;;;;;;7.30;100.00;100696.31;4897411;29;20039;-85
2021/12/16 00:54:12;;;;;;;;;;;;;;;7.36;100.00;100715.88;4922840;29;20032;-84
2021/12/16 00:56:42;;;;;;;8.15;2.83;;;;;;;7.27;100.00;100701.81;4914486;29;19983;-85
2021/12/16 00:59:10;;;;;;;9.35;3.47;;;;;;;7.18;100.00;100708.66;4911481;29;20474;-86
2021/12/16 01:07:07;;;;;;;14.30;3.70;;;;;;;7.25;100.00;100703.72;4921661;29;20036;-86
2021/12/16 01:50:23;;;;;;;9.77;2.97;;;;;;;7.19;100.00;100697.25;4940147;29;20430;-86
2021/12/16 01:56:24;;;;;;;5.38;2.83;;;;;;;7.34;100.00;100709.94;4891057;29;20411;-87
2021/12/16 01:58:51;;;;;;;6.63;3.00;;;;;;;7.46;100.00;100716.72;4921895;29;20407;-87
2021/12/16 02:01:29;;;;;;;8.23;2.85;;;;;;;7.37;100.00;100712.28;4906804;29;20036;-88
2021/12/16 02:04:09;;;;;;;9.90;2.78;;;;;;;7.53;100.00;100738.75;4906122;29;20035;-85
2021/12/16 02:06:46;;;;;;;12.77;2.72;;;;;;;7.53;100.00;100727.47;4905735;29;20054;-85
2021/12/16 02:09:26;;;;;;;8.68;3.17;;;;;;;7.66;100.00;100738.53;4921399;29;20046;-87
2021/12/16 02:36:23;;;;;;;7.93;2.85;;;;;;;7.22;100.00;100767.50;4876408;29;20162;-86
2021/12/16 02:38:56;;;;;;;8.93;3.72;;;;;;;7.27;100.00;100783.63;4907514;29;20052;-85
2021/12/16 02:41:23;;;;;;;12.77;3.67;;;;;;;7.19;100.00;100780.81;4904145;29;20036;-89
2021/12/16 02:44:12;;;;;;;13.23;3.85;;;;;;;7.12;100.00;100777.88;4886151;29;20037;-84
2021/12/16 02:49:23;;;;;;;10.27;4.40;;;;;;;7.00;100.00;100790.19;4900623;29;20094;-86
2021/12/16 02:51:50;;;;;;;13.63;4.57;;;;;;;7.04;100.00;100774.25;4919571;29;20134;-85
2021/12/16 02:54:16;;;;;;;15.15;4.63;;;;;;;7.07;100.00;100768.78;4933568;29;20040;-87
2021/12/16 02:56:42;;;;;;;15.23;4.63;;;;;;;6.97;100.00;100785.22;4893438;29;20067;-86
2021/12/16 02:59:07;;;;;;;8.48;3.65;;;;;;;6.92;100.00;100781.34;4914543;29;20482;-86
2021/12/16 03:01:45;;;;;;;16.67;4.25;;;;;;;6.88;100.00;100786.00;4894933;29;20039;-86
2021/12/16 03:04:14;;;;;;;14.18;4.70;;;;;;;6.84;100.00;100780.19;4923279;29;20032;-86
2021/12/16 03:06:42;;;;;;;7.55;3.97;;;;;;;6.90;100.00;100791.91;4919345;29;20174;-86
2021/12/16 03:09:11;;;;;;;11.85;4.22;;;;;;;6.83;100.00;100793.38;4939567;29;20470;-84
2021/12/16 03:21:38;;;;;;;12.35;5.28;;;;;;;6.19;100.00;100789.81;4939375;29;20071;-85
2021/12/16 03:34:55;;;;;;;17.15;4.35;;;;;;;5.96;100.00;100790.66;4938975;29;20035;-84
2021/12/16 03:37:24;;;;;;;10.45;4.18;;;;;;;5.90;100.00;100795.53;4906098;29;20051;-84
2021/12/16 03:40:22;;;;;;;12.18;4.13;;;;;;;6.00;100.00;100815.53;4906492;29;20163;-86
2021/12/16 03:42:58;;;;;;;10.63;4.80;;;;;;;6.18;100.00;100819.44;4865504;29;20146;-86
2021/12/16 03:48:50;;;;;;;13.05;5.43;;;;;;;6.08;100.00;100804.53;4918582;29;20055;-86
2021/12/16 03:51:21;;;;;;;11.43;4.72;;;;;;;6.17;100.00;100828.22;4906017;29;20397;-87
2021/12/16 03:53:50;;;;;;;13.38;4.38;;;;;;;6.11;100.00;100834.75;4921659;29;20036;-85
2021/12/16 03:56:16;;;;;;;11.75;4.53;;;;;;;6.00;100.00;100825.13;4921586;29;20111;-84
2021/12/16 03:58:43;;;;;;;10.95;4.75;;;;;;;5.92;100.00;100845.78;4907586;29;20372;-85
2021/12/16 04:01:17;;;;;;;15.88;4.78;;;;;;;5.79;100.00;100841.50;4902014;29;20095;-84
2021/12/16 04:03:43;;;;;;;14.18;4.63;;;;;;;5.61;100.00;100835.09;4902571;29;20039;-85
2021/12/16 04:06:10;;;;;;;12.15;4.43;;;;;;;5.63;100.00;100843.63;4902705;29;20036;-85
2021/12/16 04:08:36;;;;;;;11.18;4.07;;;;;;;5.50;100.00;100841.13;4887183;29;20036;-86
2021/12/16 04:11:11;;;;;;;11.30;3.40;;;;;;;5.39;100.00;100850.56;4903202;29;20116;-86
2021/12/16 04:13:53;;;;;;;9.90;4.15;;;;;;;5.24;100.00;100849.13;4902915;29;20032;-87
2021/12/16 04:16:30;;;;;;;13.45;4.18;;;;;;;5.14;100.00;100847.19;4890151;29;20038;-86
2021/12/16 04:18:58;;;;;;;9.10;3.97;;;;;;;5.03;100.00;100847.19;4938508;29;20051;-85
2021/12/16 04:21:27;;;;;;;9.88;4.13;;;;;;;4.94;100.00;100851.28;4921156;29;20047;-86
2021/12/16 04:23:58;;;;;;;10.73;4.15;;;;;;;4.90;100.00;100859.44;4905927;29;20032;-87
2021/12/16 04:26:27;;;;;;;11.02;4.47;;;;;;;4.80;100.00;100851.47;4903282;29;20115;-86
2021/12/16 04:28:54;;;;;;;7.63;4.13;;;;;;;4.96;100.00;100864.19;4904680;29;20032;-86
2021/12/16 04:31:20;;;;;;;18.48;4.93;;;;;;;5.01;100.00;100856.84;4903886;29;20128;-86
2021/12/16 04:33:46;;;;;;;9.98;4.70;;;;;;;4.94;100.00;100864.31;4916083;29;20046;-86
2021/12/16 04:36:13;;;;;;;13.63;4.60;;;;;;;4.93;100.00;100865.25;4906021;29;20040;-87
2021/12/16 04:38:41;;;;;;;8.85;4.53;;;;;;;4.96;100.00;100878.03;4921408;29;20071;-87
2021/12/16 04:41:12;;;;;;;13.07;4.55;;;;;;;4.91;100.00;100877.50;4905809;29;20091;-85
2021/12/16 04:43:49;;;;;;;9.68;4.28;;;;;;;4.92;100.00;100867.94;4921402;29;20081;-86
2021/12/16 04:46:19;;;;;;;10.68;5.03;;;;;;;4.92;100.00;100878.38;4939742;29;20138;-87
2021/12/16 04:48:48;;;;;;;12.75;4.85;;;;;;;4.93;100.00;100880.88;4921356;29;20036;-86
2021/12/16 04:51:14;;;;;;;10.68;4.75;;;;;;;4.84;100.00;100876.31;4905469;29;20044;-85
2021/12/16 04:53:41;;;;;;;10.20;4.15;;;;;;;4.83;100.00;100888.50;4921362;29;20082;-86
2021/12/16 04:56:09;;;;;;;10.13;4.07;;;;;;;4.80;100.00;100885.28;4905204;29;20546;-85
2021/12/16 04:58:40;;;;;;;9.98;4.50;;;;;;;4.81;100.00;100890.38;4901920;29;20040;-88
2021/12/16 05:01:05;;;;;;;10.52;4.25;;;;;;;4.64;100.00;100865.56;4918490;29;20538;-87
2021/12/16 05:03:32;;;;;;;11.30;4.38;;;;;;;4.74;100.00;100896.97;4929376;29;20032;-86
2021/12/16 05:05:58;;;;;;;11.63;5.10;;;;;;;4.81;100.00;100907.75;4921003;29;20067;-88
2021/12/16 05:08:24;;;;;;;12.38;4.63;;;;;;;4.78;100.00;100908.00;4920906;29;20513;-86
2021/12/16 05:10:53;;;;;;;13.43;4.40;;;;;;;4.77;100.00;100912.34;4921143;29;20078;-86
2021/12/16 05:13:22;;;;;;;8.68;4.30;;;;;;;4.83;100.00;100919.72;4905345;29;20142;-87
2021/12/16 05:15:48;;;;;;;14.90;5.13;;;;;;;4.87;100.00;100907.31;4920244;29;20063;-86
2021/12/16 05:18:21;;;;;;;11.82;5.03;;;;;;;5.01;100.00;100914.09;4905034;29;20090;-87
2021/12/16 05:20:47;;;;;;;13.52;5.47;;;;;;;5.04;100.00;100916.50;4922115;29;20032;-88
2021/12/16 05:28:25;;;;;;;9.35;4.80;;;;;;;5.33;100.00;100934.38;4921903;29;20514;-89
2021/12/16 05:30:52;;;;;;;12.20;5.28;;;;;;;5.48;100.00;100931.56;4909811;29;20032;-87
2021/12/16 05:33:19;;;;;;;11.77;5.38;;;;;;;5.40;100.00;100909.53;4886151;29;20187;-89
2021/12/16 05:35:45;;;;;;;15.20;5.75;;;;;;;5.55;100.00;100933.59;4901615;29;20040;-88
2021/12/16 05:38:11;;;;;;;11.25;4.93;;;;;;;5.51;100.00;100934.78;4918458;29;20046;-87
2021/12/16 05:40:38;;;;;;;11.77;5.50;;;;;;;5.34;100.00;100919.59;4918350;29;20506;-87
2021/12/16 05:43:07;;;;;;;12.30;5.22;;;;;;;5.40;100.00;100937.34;4918039;29;20474;-87
2021/12/16 05:45:33;;;;;;;12.27;4.70;;;;;;;5.32;100.00;100947.50;4903139;29;20032;-89
2021/12/16 05:48:01;;;;;;;15.55;5.65;;;;;;;5.02;100.00;100926.22;4906418;29;20035;-87
2021/12/16 05:50:33;;;;;;;10.65;4.47;;;;;;;4.95;100.00;100936.22;4922872;29;20035;-86
2021/12/16 05:52:59;;;;;;;11.65;5.13;;;;;;;4.93;100.00;100927.72;4911576;29;20039;-87
2021/12/16 05:55:28;;;;;;;12.52;5.20;;;;;;;4.81;100.00;100923.38;4905105;29;20032;-89
2021/12/16 05:57:56;;;;;;;12.27;5.03;;;;;;;4.79;100.00;100920.06;4905046;29;20059;-87
2021/12/16 06:00:31;;;;;;;13.25;5.20;;;;;;;5.21;100.00;100956.94;4903888;29;20040;-87
2021/12/16 06:02:57;;;;;;;13.98;5.82;;;;;;;5.22;100.00;100958.59;4920030;29;20131;-86
2021/12/16 06:05:23;;;;;;;12.13;5.80;;;;;;;5.25;100.00;100958.34;4890879;29;20107;-86
2021/12/16 06:07:52;;;;;;;16.05;6.25;;;;;;;5.08;100.00;100930.97;4902840;29;20446;-84
2021/12/16 06:13:04;;;;;;;13.75;6.43;;;;;;;5.22;100.00;100971.59;4920020;29;20039;-86
2021/12/16 06:26:31;;;;;;;17.75;5.93;;;;;;;5.12;100.00;100962.81;4936782;29;20119;-86
2021/12/16 06:28:59;;;;;;;17.80;6.18;;;;;;;5.18;100.00;100961.50;4908430;29;20059;-87
2021/12/16 06:31:24;;;;;;;20.58;7.00;;;;;;;5.28;100.00;100978.97;4924816;29;20039;-88
2021/12/16 06:33:50;;;;;;;14.10;7.20;;;;;;;5.18;100.00;100959.75;4924612;29;20036;-87
2021/12/16 06:36:16;;;;;;;16.75;6.90;;;;;;;5.15;100.00;100960.81;4907966;29;20031;-90
2021/12/16 06:38:41;;;;;;;19.55;7.03;;;;;;;5.18;100.00;100983.19;4922541;29;20418;-88
2021/12/16 06:41:07;;;;;;;16.30;8.35;;;;;;;5.27;100.00;101002.53;4906349;29;20120;-87
2021/12/16 06:43:35;;;;;;;18.83;7.90;;;;;;;5.19;100.00;101003.06;4906216;29;20558;-87
2021/12/16 06:46:05;;;;;;;18.50;8.18;;;;;;;5.19;100.00;100997.88;4914142;29;20443;-90
2021/12/16 06:48:34;;;;;;;16.45;7.72;;;;;;;5.17;100.00;100985.88;4908049;29;20123;-87
2021/12/16 06:51:09;;;;;;;18.40;9.00;;;;;;;5.19;100.00;100987.44;4912513;29;20362;-87
2021/12/16 06:53:52;;;;;;;13.30;7.72;;;;;;;5.36;100.00;101009.66;4908896;29;20042;-89
2021/12/16 06:56:27;;;;;;;20.25;9.07;;;;;;;5.39;100.00;101019.03;4930678;29;20061;-87
2021/12/16 06:59:10;;;;;;;17.30;8.52;;;;;;;5.26;100.00;100996.47;4898773;29;20607;-87
2021/12/16 07:01:39;;;;;;;18.20;6.95;;;;;;;5.48;100.00;101031.38;4931350;29;20094;-88
2021/12/16 07:04:09;;;;;;;20.38;9.32;;;;;;;5.39;100.00;101016.41;4902230;29;20040;-87
2021/12/16 07:06:36;;;;;;;25.25;9.65;;;;;;;5.37;100.00;101003.50;4895110;29;20035;-87
2021/12/16 07:09:15;;;;;;;21.90;10.82;;;;;;;5.76;100.00;101037.16;4924829;29;20569;-88
2021/12/16 07:11:44;;;;;;;23.90;11.15;;;;;;;5.59;100.00;101014.94;4907653;29;20079;-87
2021/12/16 07:14:14;;;;;;;17.67;7.40;;;;;;;5.62;100.00;101019.13;4922954;29;20045;-86
2021/12/16 07:16:41;;;;;;;20.35;7.53;;;;;;;5.77;100.00;101031.00;4906229;29;20032;-87
2021/12/16 07:19:07;;;;;;;19.05;8.43;;;;;;;5.85;100.00;101028.66;4894538;29;20036;-87
2021/12/16 07:21:37;;;;;;;13.85;7.15;;;;;;;6.06;100.00;101038.44;4919773;29;20042;-86
2021/12/16 07:24:09;;;;;;;14.52;6.93;;;;;;;6.06;100.00;101035.84;4919606;29;20036;-87
2021/12/16 07:26:35;;;;;;;18.40;7.47;;;;;;;6.19;100.00;101045.34;4897597;29;20091;-87
2021/12/16 07:29:03;;;;;;;16.20;8.30;;;;;;;6.11;100.00;101054.59;4894264;29;20040;-86
2021/12/16 07:31:28;;;;;;;16.67;7.30;;;;;;;5.95;100.00;101051.44;4894208;29;20111;-87
2021/12/16 07:33:55;;;;;;;19.92;7.82;;;;;;;5.65;100.00;101031.91;4904701;29;20534;-88
2021/12/16 07:36:22;;;;;;;17.00;8.25;;;;;;;5.65;100.00;101048.38;4931560;29;20032;-87
2021/12/16 07:38:48;;;;;;;18.83;9.55;;;;;;;5.64;100.00;101066.72;4908257;29;20499;-88
2021/12/16 07:41:17;;;;;;;20.95;11.48;;;;;;;5.36;100.00;101047.91;4898517;29;20031;-90
2021/12/16 07:43:58;;;;;;;18.75;10.80;;;;;;;5.52;100.00;101078.88;4900852;29;20455;-88
2021/12/16 07:46:25;;;;;;;22.27;10.45;;;;;;;5.54;100.00;101088.25;4913879;29;20036;-88
2021/12/16 07:48:54;;;;;;;19.67;10.90;;;;;;;5.43;100.00;101070.78;4907198;29;20036;-89
2021/12/16 07:51:20;;;;;;;19.55;10.75;;;;;;;5.32;100.00;101068.13;4899415;29;20067;-90
2021/12/16 07:53:46;;;;;;;20.33;9.80;;;;;;;5.20;100.00;101064.63;4896172;29;20040;-89
2021/12/16 07:56:12;;;;;;;16.98;9.32;;;;;;;5.34;100.00;101083.66;4915923;29;20028;-88
2021/12/16 07:58:38;;;;;;;21.60;11.10;;;;;;;5.50;100.00;101093.78;4909591;29;20111;-89
2021/12/16 08:01:04;;;;;;;14.25;8.93;;;;;;;5.53;100.00;101096.16;4916759;29;20039;-90
2021/12/16 08:03:35;;;;;;;15.30;7.72;;;;;;;5.49;100.00;101092.94;4897043;29;20058;-85
2021/12/16 08:06:11;;;;;;;13.43;7.97;;;;;;;5.41;100.00;101077.03;4907782;29;20103;-86
2021/12/16 08:08:37;;;;;;;15.80;7.63;;;;;;;5.54;100.00;101103.03;4903171;29;20027;-88
2021/12/16 08:11:05;;;;;;;12.00;7.18;;;;;;;5.55;100.00;101115.97;4908671;29;20028;-84
2021/12/16 08:13:32;;;;;;;20.85;8.68;;;;;;;5.47;100.00;101100.03;4927106;29;20062;-87
2021/12/16 08:15:59;;;;;;;19.20;11.00;;;;;;;5.80;100.00;101114.19;4922652;29;20028;-85
2021/12/16 08:18:25;;;;;;;20.58;9.63;;;;;;;6.01;100.00;101121.41;4909905;29;20542;-86
2021/12/16 08:20:51;;;;;;;21.63;9.55;;;;;;;6.00;100.00;101120.56;4896815;29;20035;-83
2021/12/16 08:23:16;;;;;;;22.40;10.93;;;;;;;6.02;100.00;101123.06;4923802;29;20028;-83
2021/12/16 08:25:42;;;;;;;29.02;12.70;;;;;;;6.00;100.00;101130.13;4909609;29;20036;-87
2021/12/16 08:28:08;;;;;;;36.80;23.77;;;;;;;5.92;100.00;101130.69;4910650;29;20123;-85
2021/12/16 08:30:40;;;;;;;36.63;17.77;;;;;;;5.85;100.00;101124.28;4906172;29;20044;-87
2021/12/16 08:33:09;;;;;;;22.60;10.95;;;;;;;5.97;100.00;101128.56;4930681;29;20040;-86
2021/12/16 08:35:37;;;;;;;20.58;10.00;;;;;;;6.02;100.00;101136.09;4888390;29;20387;-86
2021/12/16 08:38:03;;;;;;;24.20;10.57;;;;;;;6.02;100.00;101128.28;4923885;29;20040;-85
2021/12/16 08:40:30;;;;;;;16.85;10.57;;;;;;;6.02;100.00;101137.88;4925353;29;20036;-86
2021/12/16 08:42:56;;;;;;;22.27;13.07;;;;;;;5.97;100.00;101130.38;4894356;29;20493;-84
2021/12/16 08:45:34;;;;;;;21.02;12.52;;;;;;;5.95;100.00;101127.84;4907838;29;20040;-85
2021/12/16 08:48:02;;;;;;;21.17;13.25;;;;;;;5.84;100.00;101135.66;4923197;29;20031;-86
2021/12/16 08:50:33;;;;;;;23.30;12.95;;;;;;;5.88;100.00;101144.06;4926920;29;20115;-83
2021/12/16 08:53:03;;;;;;;24.85;10.85;;;;;;;5.90;100.00;101144.81;4928031;29;20036;-83
2021/12/16 08:55:32;;;;;;;17.17;10.60;;;;;;;5.92;100.00;101145.50;4912745;29;20028;-85
2021/12/16 08:57:57;;;;;;;17.15;10.02;;;;;;;5.91;100.00;101149.06;4928891;29;20032;-84
2021/12/16 09:00:30;;;;;;;19.83;9.65;;;;;;;5.98;100.00;101152.88;4927323;29;20443;-82
2021/12/16 09:02:56;;;;;;;22.80;9.68;;;;;;;5.95;100.00;101145.28;4923055;29;20036;-83
2021/12/16 09:05:22;;;;;;;26.63;10.43;;;;;;;6.04;100.00;101155.06;4922700;29;20419;-83
2021/12/16 09:07:48;;;;;;;23.00;12.13;;;;;;;6.16;100.00;101160.34;4909117;29;20090;-82
2021/12/16 09:10:26;;;;;;;17.70;11.48;;;;;;;6.05;100.00;101142.88;4926787;29;20044;-85
2021/12/16 09:13:03;;;;;;;19.48;11.07;;;;;;;6.10;100.00;101159.84;5074524;28;20379;-85
2021/12/16 09:15:39;;;;;;;23.20;14.30;;;;;;;6.13;100.00;101167.44;5078374;28;20509;-88
2021/12/16 09:18:05;;;;;;;23.00;11.63;;;;;;;6.10;100.00;101156.41;5066458;28;20033;-87
2021/12/16 09:20:33;;;;;;;20.48;10.68;;;;;;;6.25;100.00;101165.69;5090375;28;20040;-87
2021/12/16 09:23:00;;;;;;;23.95;11.48;;;;;;;6.28;100.00;101169.84;5074237;28;20106;-86
2021/12/16 09:25:26;;;;;;;18.38;8.55;;;;;;;6.31;100.00;101167.03;5090077;28;20036;-87
2021/12/16 09:27:52;;;;;;;19.30;11.20;;;;;;;6.41;100.00;101170.59;5073025;28;20064;-87
2021/12/16 09:30:22;;;;;;;22.42;9.48;;;;;;;6.58;100.00;101160.69;5073418;28;20029;-88
2021/12/16 09:32:51;;;;;;;16.77;9.68;;;;;;;6.61;100.00;101155.22;5089739;28;20036;-86
2021/12/16 09:35:20;;;;;;;16.50;10.13;;;;;;;6.82;100.00;101172.81;5073785;28;20036;-87
2021/12/16 09:37:46;;;;;;;21.42;9.73;;;;;;;6.83;100.00;101166.63;5080880;28;20035;-83
2021/12/16 09:40:21;;;;;;;18.35;8.75;;;;;;;6.67;100.00;101159.97;5069653;28;21533;-85
2021/12/16 09:42:50;;;;;;;15.07;8.98;;;;;;;6.62;100.00;101154.28;5057626;28;20021;-83
2021/12/16 09:45:16;;;;;;;19.60;10.65;;;;;;;6.56;100.00;101163.38;5058118;28;20482;-85
2021/12/16 09:47:45;;;;;;;22.88;12.05;;;;;;;6.48;100.00;101170.13;5078490;28;20035;-85
2021/12/16 09:50:17;;;;;;;21.35;13.15;;;;;;;6.54;100.00;101195.78;5075214;28;20051;-84
2021/12/16 09:52:42;;;;;;;26.40;12.52;;;;;;;6.36;100.00;101170.13;5076170;28;20017;-83
2021/12/16 09:55:09;;;;;;;23.70;13.55;;;;;;;6.34;100.00;101174.63;5080401;28;20088;-86
2021/12/16 09:57:36;;;;;;;26.35;13.98;;;;;;;6.44;100.00;101187.81;5058895;28;20033;-85
2021/12/16 10:00:06;;;;;;;26.50;14.23;;;;;;;6.57;100.00;101198.16;5049968;28;20403;-83
2021/12/16 10:02:32;;;;;;;25.45;13.45;;;;;;;6.58;100.00;101186.78;5065344;28;20024;-85
2021/12/16 10:04:58;;;;;;;19.40;12.35;;;;;;;6.61;100.00;101196.97;5073354;28;20082;-83
2021/12/16 10:07:32;;;;;;;21.30;11.02;;;;;;;6.67;100.00;101216.56;5080078;28;20123;-86
2021/12/16 10:09:59;;;;;;;18.15;10.65;;;;;;;6.77;100.00;101214.09;5089617;28;20355;-83
2021/12/16 10:12:30;;;;;;;20.20;11.32;;;;;;;6.69;100.00;101189.41;5089853;28;20053;-85
2021/12/16 10:17:28;;;;;;;21.63;11.07;;;;;;;7.02;100.00;101214.84;5068316;28;20039;-88
2021/12/16 10:19:57;;;;;;;23.85;11.75;;;;;;;7.20;100.00;101226.50;5070940;28;20028;-85
2021/12/16 10:22:31;;;;;;;26.80;12.82;;;;;;;7.36;100.00;101222.69;5077738;28;20081;-84
2021/12/16 10:25:17;;;;;;;25.48;11.68;;;;;;;7.50;100.00;101229.44;5076056;28;20406;-86
2021/12/16 10:27:59;;;;;;;20.10;10.32;;;;;;;7.54;100.00;101226.47;5055230;28;20116;-84
2021/12/16 10:30:37;;;;;;;16.17;8.90;;;;;;;7.47;100.00;101209.63;5056580;28;20033;-87
2021/12/16 10:33:13;;;;;;;17.05;9.18;;;;;;;7.45;100.00;101211.50;5060108;28;20290;-89
2021/12/16 10:35:39;;;;;;;17.77;9.10;;;;;;;7.33;100.00;101202.03;5060597;28;20107;-87
2021/12/16 10:38:07;;;;;;;18.55;9.82;;;;;;;7.51;100.00;101226.72;5066941;28;20036;-88
2021/12/16 10:40:50;;;;;;;14.73;9.13;;;;;;;7.47;100.00;101209.63;5064328;28;20033;-87
2021/12/16 10:43:36;;;;;;;15.85;9.68;;;;;;;7.63;100.00;101193.56;5049964;28;20029;-89
2021/12/16 10:46:09;;;;;;;18.95;9.65;;;;;;;8.23;100.00;101236.78;5068434;28;20044;-88
2021/12/16 10:49:16;;;;;;;19.83;9.70;;;;;;;8.43;100.00;101232.53;5066601;28;20062;-88
2021/12/16 10:51:46;;;;;;;16.35;9.32;;;;;;;8.45;100.00;101233.25;5042670;28;20398;-89
2021/12/16 10:54:17;;;;;;;17.38;9.00;;;;;;;8.40;100.00;101225.75;5064824;28;20538;-88
2021/12/16 10:56:45;;;;;;;14.77;8.65;;;;;;;8.36;100.00;101245.28;5061164;28;20036;-86
2021/12/16 10:59:46;;;;;;;14.30;8.50;;;;;;;8.30;100.00;101237.94;5066909;28;20489;-84
2021/12/16 11:02:19;;;;;;;17.88;9.00;;;;;;;8.33;100.00;101231.63;5042378;28;20032;-84
2021/12/16 11:04:47;;;;;;;16.30;8.45;;;;;;;8.29;100.00;101234.50;5041131;28;20060;-86
2021/12/16 11:07:35;;;;;;;17.40;8.93;;;;;;;8.21;100.00;101228.22;5066974;28;20028;-85
2021/12/16 11:10:12;;;;;;;17.50;8.80;;;;;;;8.40;100.00;101238.84;5061569;28;20044;-86
2021/12/16 11:12:54;;;;;;;16.52;9.80;;;;;;;8.50;100.00;101243.38;5069837;28;20048;-86
2021/12/16 11:15:25;;;;;;;20.02;8.45;;;;;;;8.64;100.00;101235.19;5065424;28;20433;-84
2021/12/16 11:18:17;;;;;;;16.45;9.48;;;;;;;8.70;100.00;101231.22;5061815;28;20048;-83
2021/12/16 11:20:47;;;;;;;20.48;11.85;;;;;;;8.69;100.00;101235.66;5060109;28;20031;-85
2021/12/16 11:23:37;;;;;;;20.48;11.90;;;;;;;8.59;100.00;101216.41;5066166;28;20044;-84
2021/12/16 11:26:06;;;;;;;21.02;12.82;;;;;;;8.79;100.00;101238.34;5060738;28;20101;-84
2021/12/16 11:28:51;;;;;;;19.38;12.27;;;;;;;8.81;100.00;101231.19;5065098;28;20033;-84
2021/12/16 11:31:29;;;;;;;25.63;15.32;;;;;;;8.93;100.00;101239.78;5056262;28;20048;-84
2021/12/16 11:34:02;;;;;;;23.15;15.27;;;;;;;9.05;100.00;101240.53;5058868;28;20064;-83
2021/12/16 11:36:31;;;;;;;20.27;13.27;;;;;;;9.06;100.00;101239.59;5064540;28;20111;-85
2021/12/16 11:39:29;;;;;;;21.77;11.43;;;;;;;9.11;100.00;101237.41;5062262;28;20033;-85
2021/12/16 11:42:02;;;;;;;19.30;11.60;;;;;;;9.06;100.00;101215.19;5066094;28;20043;-84
2021/12/16 11:44:40;;;;;;;21.80;10.98;;;;;;;9.30;100.00;101246.31;5061001;28;20031;-84
2021/12/16 11:47:16;;;;;;;19.02;10.07;;;;;;;9.27;100.00;101236.94;5060951;28;20071;-84
2021/12/16 11:49:45;;;;;;;16.40;9.65;;;;;;;9.42;100.00;101237.41;5050254;28;20041;-84
2021/12/16 11:52:23;;;;;;;20.85;9.43;;;;;;;9.63;100.00;101241.75;5062702;28;20032;-82
2021/12/16 11:54:57;;;;;;;16.08;9.90;;;;;;;9.76;100.00;101238.88;5060414;28;20456;-85
2021/12/16 11:57:43;;;;;;;13.70;7.15;;;;;;;9.93;100.00;101232.16;5062188;28;20732;-84
2021/12/16 12:00:19;;;;;;;13.32;6.30;;;;;;;10.04;100.00;101238.22;5056459;28;20037;-86
2021/12/16 12:02:47;;;;;;;10.57;6.20;;;;;;;10.14;100.00;101232.03;5066876;28;20078;-86
2021/12/16 12:05:22;;;;;;;11.48;5.85;;;;;;;10.38;100.00;101236.03;5056971;28;20375;-83
2021/12/16 12:07:51;;;;;;;9.88;5.45;;;;;;;10.51;100.00;101224.44;5063827;28;20121;-86
2021/12/16 12:10:37;;;;;;;10.48;5.47;;;;;;;10.40;100.00;101209.66;5057985;28;20075;-84
2021/12/16 12:13:06;;;;;;;10.48;5.13;;;;;;;10.58;100.00;101217.66;5064346;28;20033;-86
2021/12/16 12:15:49;;;;;;;12.75;8.05;;;;;;;10.54;100.00;101224.16;5056521;28;20422;-87
2021/12/16 12:18:33;;;;;;;10.70;5.30;;;;;;;10.53;100.00;101230.38;5064536;28;20105;-84
2021/12/16 12:21:17;;;;;;;14.77;5.03;;;;;;;10.67;100.00;101234.38;5048130;28;20386;-86
2021/12/16 12:23:44;;;;;;;11.90;7.15;;;;;;;10.64;100.00;101234.66;5066280;28;20116;-85
2021/12/16 12:26:15;;;;;;;8.63;5.75;;;;;;;10.70;100.00;101234.09;5058947;28;20116;-85
2021/12/16 12:28:50;;;;;;;9.63;5.07;;;;;;;10.82;100.00;101232.16;5060083;28;20552;-87
2021/12/16 12:31:22;;;;;;;7.70;4.68;;;;;;;10.76;100.00;101227.44;5061649;28;20036;-86
2021/12/16 12:33:48;;;;;;;7.70;4.43;;;;;;;10.71;100.00;101220.81;5064017;28;20386;-84
2021/12/16 12:36:16;;;;;;;12.35;5.22;;;;;;;10.60;100.00;101222.78;5069016;28;20075;-84
2021/12/16 12:38:42;;;;;;;8.00;4.43;;;;;;;10.37;100.00;101217.81;5053859;28;20033;-85
2021/12/16 12:41:08;;;;;;;9.23;5.53;;;;;;;10.50;100.00;101238.53;5061022;28;20027;-83
2021/12/16 12:43:36;;;;;;;12.15;5.90;;;;;;;10.34;100.00;101241.72;5058197;28;20135;-84
2021/12/16 12:46:06;;;;;;;13.70;5.63;;;;;;;10.20;100.00;101230.66;5050944;28;20062;-85
2021/12/16 12:48:34;;;;;;;11.85;5.93;;;;;;;10.24;100.00;101239.91;5072673;28;20033;-84
2021/12/16 12:51:04;;;;;;;12.68;6.07;;;;;;;10.26;100.00;101237.16;5063300;28;20037;-85
2021/12/16 12:53:36;;;;;;;11.20;6.22;;;;;;;10.15;100.00;101230.25;5059138;28;20036;-85
2021/12/16 12:56:20;;;;;;;8.93;5.53;;;;;;;10.00;100.00;101232.41;5058700;28;20043;-84
2021/12/16 12:58:51;;;;;;;9.48;4.88;;;;;;;10.01;100.00;101239.31;5040500;28;20494;-84
2021/12/16 13:01:16;;;;;;;8.32;5.03;;;;;;;9.83;100.00;101231.28;5038023;28;20031;-85
2021/12/16 13:03:42;;;;;;;11.00;5.57;;;;;;;9.98;100.00;101229.09;5059787;28;20417;-84
2021/12/16 13:06:14;;;;;;;8.10;5.28;;;;;;;10.20;100.00;101248.19;5068402;28;20111;-84
2021/12/16 13:08:46;;;;;;;10.45;5.60;;;;;;;10.35;100.00;101236.31;5064300;28;20421;-83
2021/12/16 13:11:29;;;;;;;12.57;5.47;;;;;;;10.33;100.00;101217.25;5032477;28;20038;-84
2021/12/16 13:14:09;;;;;;;10.95;4.72;;;;;;;10.43;100.00;101227.78;5085839;28;20441;-85
2021/12/16 13:17:20;;;;;;;9.90;4.75;;;;;;;10.37;100.00;101233.56;5069301;28;20513;-83
2021/12/16 13:28:56;;;;;;;10.50;3.75;;;;;;;9.90;100.00;101236.84;5054804;28;20528;-84
2021/12/16 13:31:25;;;;;;;6.85;3.80;;;;;;;9.91;100.00;101238.50;5038330;28;20036;-83
2021/12/16 13:33:56;;;;;;;7.82;3.75;;;;;;;9.78;100.00;101246.63;5070289;28;20020;-83
2021/12/16 13:36:42;;;;;;;9.43;3.65;;;;;;;9.86;100.00;101242.34;5049677;28;20044;-82
2021/12/16 13:39:13;;;;;;;5.80;3.40;;;;;;;9.72;100.00;101243.53;5047955;28;20036;-82
2021/12/16 13:42:05;;;;;;;6.38;3.17;;;;;;;9.78;100.00;101239.56;5066619;28;20028;-83
2021/12/16 13:44:39;;;;;;;4.32;3.28;;;;;;;9.79;100.00;101235.16;5067408;28;20033;-83
2021/12/16 13:47:19;;;;;;;8.43;3.47;;;;;;;9.66;100.00;101224.91;5066161;28;20115;-83
2021/12/16 14:05:17;;;;;;;9.98;3.72;;;;;;;9.22;100.00;101239.09;5065871;28;20047;-83
2021/12/16 14:07:58;;;;;;;11.75;4.28;;;;;;;9.21;100.00;101239.25;5070724;28;20036;-84
2021/12/16 14:10:43;;;;;;;10.85;4.00;;;;;;;9.21;100.00;101240.06;5057723;28;20390;-83
2021/12/16 14:25:43;;;;;;;9.95;4.20;;;;;;;9.10;100.00;101240.97;5067430;28;20086;-82
2021/12/16 14:39:47;;;;;;;20.17;5.38;;;;;;;8.98;100.00;101248.09;5068123;28;20111;-83
2021/12/16 14:42:32;;;;;;;13.10;4.95;;;;;;;8.85;100.00;101248.28;5077279;28;20047;-82
2021/12/16 14:50:08;;;;;;;12.93;4.40;;;;;;;8.65;100.00;101249.13;5061883;28;20024;-84
2021/12/16 14:52:36;;;;;;;15.02;4.63;;;;;;;8.68;100.00;101241.84;5060972;28;20040;-83
2021/12/16 14:55:10;;;;;;;16.77;4.43;;;;;;;8.61;100.00;101251.16;5067805;28;20040;-84
2021/12/16 14:57:39;;;;;;;10.32;5.75;;;;;;;8.41;100.00;101244.94;5064501;28;20029;-83
2021/12/16 15:00:29;;;;;;;10.25;4.47;;;;;;;8.40;100.00;101254.53;5063947;28;20111;-84
2021/12/16 15:03:08;;;;;;;9.05;4.72;;;;;;;8.33;100.00;101245.56;5063797;28;20028;-83
2021/12/16 15:05:46;;;;;;;6.88;3.97;;;;;;;8.25;100.00;101261.03;5063538;28;20024;-83
2021/12/16 15:08:29;;;;;;;9.70;4.45;;;;;;;8.25;100.00;101271.50;5064764;28;20096;-83